createdAt,value
2023-03-13T00:00:13.173Z,2.45
2023-03-13T00:01:18.971Z,2.13
2023-03-13T00:02:21.080Z,2.55
2023-03-13T00:03:24.360Z,1.83
2023-03-13T00:04:26.327Z,1.83
2023-03-13T00:05:29.280Z,2.10
2023-03-13T00:06:34.889Z,2.42
2023-03-13T00:07:37.809Z,2.00
2023-03-13T00:08:40.268Z,2.05
2023-03-13T00:09:43.181Z,1.90
2023-03-13T00:10:45.079Z,1.98
2023-03-13T00:11:48.287Z,2.15
2023-03-13T00:12:50.094Z,2.03
2023-03-13T00:13:55.889Z,2.28
2023-03-13T00:14:58.211Z,2.50
2023-03-13T00:16:02.222Z,2.45
2023-03-13T00:17:04.192Z,2.10
2023-03-13T00:18:07.267Z,1.95
2023-03-13T00:19:09.714Z,2.28
2023-03-13T00:20:13.563Z,2.20
2023-03-13T00:21:17.164Z,1.65
2023-03-13T00:22:21.370Z,2.08
2023-03-13T00:23:23.195Z,1.88
2023-03-13T00:24:26.212Z,1.42
2023-03-13T00:25:28.208Z,1.83
2023-03-13T00:26:31.807Z,1.40
2023-03-13T00:27:34.522Z,2.03
2023-03-13T00:28:39.630Z,1.45
2023-03-13T00:29:42.617Z,2.28
2023-03-13T00:30:44.638Z,2.50
2023-03-13T00:31:47.578Z,1.30
2023-03-13T00:32:51.056Z,2.00
2023-03-13T00:33:56.437Z,1.40
2023-03-13T00:34:58.295Z,1.45
2023-03-13T00:36:02.645Z,1.83
2023-03-13T00:37:04.601Z,1.35
2023-03-13T00:38:09.163Z,1.85
2023-03-13T00:39:12.091Z,1.55
2023-03-13T00:40:14.410Z,1.30
2023-03-13T00:41:19.007Z,1.42
2023-03-13T00:42:22.558Z,1.30
2023-03-13T00:43:25.431Z,1.13
2023-03-13T00:44:28.490Z,1.30
2023-03-13T00:45:30.317Z,1.60
2023-03-13T00:46:33.337Z,1.25
2023-03-13T00:47:35.378Z,1.60
2023-03-13T00:48:38.404Z,2.00
2023-03-13T00:49:40.277Z,1.38
2023-03-13T00:50:43.831Z,1.50
2023-03-13T00:51:46.750Z,1.38
2023-03-13T00:52:48.663Z,1.20
2023-03-13T00:53:52.960Z,1.73
2023-03-13T00:54:55.598Z,1.58
2023-03-13T00:56:01.402Z,1.40
2023-03-13T00:57:03.431Z,1.65
2023-03-13T00:58:06.367Z,1.42
2023-03-13T00:59:08.366Z,1.60
2023-03-13T01:00:12.674Z,1.15
2023-03-13T01:01:17.198Z,1.30
2023-03-13T01:02:20.347Z,1.58
2023-03-13T01:03:25.475Z,1.70
2023-03-13T01:04:28.514Z,1.20
2023-03-13T01:05:31.802Z,1.85
2023-03-13T01:06:42.734Z,1.70
2023-03-13T01:07:44.775Z,1.20
2023-03-13T01:08:48.000Z,1.40
2023-03-13T01:09:52.144Z,1.30
2023-03-13T01:10:59.558Z,1.30
2023-03-13T01:12:02.988Z,1.10
2023-03-13T01:13:07.402Z,1.13
2023-03-13T01:14:15.118Z,1.50
2023-03-13T01:15:19.652Z,1.02
2023-03-13T01:16:25.169Z,1.40
2023-03-13T01:17:27.153Z,1.42
2023-03-13T01:18:30.061Z,1.30
2023-03-13T01:19:32.892Z,1.13
2023-03-13T01:20:35.953Z,1.30
2023-03-13T01:21:39.080Z,1.42
2023-03-13T01:22:40.995Z,1.35
2023-03-13T01:23:44.152Z,1.23
2023-03-13T01:24:50.052Z,1.95
2023-03-13T01:25:54.459Z,1.48
2023-03-13T01:26:57.373Z,1.17
2023-03-13T01:27:59.412Z,0.98
2023-03-13T01:29:04.164Z,1.67
2023-03-13T01:30:07.374Z,1.90
2023-03-13T01:31:14.623Z,1.20
2023-03-13T01:32:16.626Z,1.95
2023-03-13T01:33:19.835Z,0.80
2023-03-13T01:34:22.720Z,1.40
2023-03-13T01:35:25.698Z,1.25
2023-03-13T01:36:28.293Z,1.10
2023-03-13T01:37:31.369Z,1.08
2023-03-13T01:38:33.300Z,1.15
2023-03-13T01:39:36.227Z,0.98
2023-03-13T01:40:41.759Z,1.40
2023-03-13T01:41:46.193Z,1.33
2023-03-13T01:42:55.168Z,1.40
2023-03-13T01:43:58.580Z,1.45
2023-03-13T01:45:06.457Z,1.45
2023-03-13T01:46:16.453Z,1.40
2023-03-13T01:47:31.035Z,1.20
2023-03-13T01:48:48.731Z,1.30
2023-03-13T01:49:53.797Z,1.15
2023-03-13T01:51:28.614Z,0.85
2023-03-13T01:52:31.969Z,1.05
2023-03-13T01:53:45.253Z,1.05
2023-03-13T01:54:52.049Z,1.38
2023-03-13T01:55:57.195Z,1.10
2023-03-13T01:57:04.425Z,1.20
2023-03-13T01:58:06.439Z,1.40
2023-03-13T01:59:12.009Z,1.20
2023-03-13T02:00:18.694Z,0.90
2023-03-13T02:01:22.293Z,1.50
2023-03-13T02:02:26.470Z,1.02
2023-03-13T02:03:29.061Z,1.10
2023-03-13T02:04:39.260Z,2.30
2023-03-13T02:05:43.153Z,1.13
2023-03-13T02:06:49.398Z,1.30
2023-03-13T02:07:57.280Z,1.30
2023-03-13T02:09:05.089Z,0.70
2023-03-13T02:10:11.130Z,1.20
2023-03-13T02:11:25.671Z,1.20
2023-03-13T02:12:32.224Z,1.30
2023-03-13T02:13:35.145Z,0.90
2023-03-13T02:14:39.512Z,1.13
2023-03-13T02:15:43.012Z,1.10
2023-03-13T02:16:48.898Z,1.60
2023-03-13T02:17:51.754Z,0.95
2023-03-13T02:18:54.704Z,1.10
2023-03-13T02:19:56.795Z,0.80
2023-03-13T02:21:09.559Z,1.23
2023-03-13T02:22:17.089Z,1.10
2023-03-13T02:23:26.159Z,0.90
2023-03-13T02:24:36.529Z,1.08
2023-03-13T02:25:44.709Z,1.17
2023-03-13T02:26:48.627Z,1.38
2023-03-13T02:27:53.764Z,1.15
2023-03-13T02:28:55.845Z,1.10
2023-03-13T02:29:59.516Z,0.95
2023-03-13T02:31:01.991Z,1.20
2023-03-13T02:32:07.684Z,1.00
2023-03-13T02:33:11.338Z,1.30
2023-03-13T02:34:16.914Z,1.55
2023-03-13T02:35:22.004Z,1.38
2023-03-13T02:36:24.857Z,1.10
2023-03-13T02:37:30.211Z,1.42
2023-03-13T02:38:50.272Z,1.10
2023-03-13T02:39:55.049Z,1.17
2023-03-13T02:41:02.337Z,1.10
2023-03-13T02:42:06.515Z,1.10
2023-03-13T02:43:14.754Z,1.05
2023-03-13T02:44:17.697Z,1.15
2023-03-13T02:45:19.875Z,1.17
2023-03-13T02:46:23.732Z,1.23
2023-03-13T02:47:28.481Z,1.10
2023-03-13T02:48:34.196Z,0.95
2023-03-13T02:49:37.475Z,1.00
2023-03-13T02:50:39.388Z,1.10
2023-03-13T02:51:45.919Z,1.33
2023-03-13T02:52:53.660Z,1.77
2023-03-13T02:54:00.938Z,1.00
2023-03-13T02:55:07.470Z,0.90
2023-03-13T02:56:15.605Z,1.10
2023-03-13T02:57:18.963Z,1.60
2023-03-13T02:58:20.859Z,1.30
2023-03-13T02:59:24.000Z,1.02
2023-03-13T03:00:27.169Z,0.70
2023-03-13T03:01:31.307Z,1.30
2023-03-13T03:02:33.425Z,1.30
2023-03-13T03:03:37.155Z,1.35
2023-03-13T03:04:39.167Z,1.00
2023-03-13T03:05:42.496Z,1.05
2023-03-13T03:06:44.368Z,1.08
2023-03-13T03:07:47.203Z,1.38
2023-03-13T03:08:49.289Z,1.23
2023-03-13T03:09:52.357Z,1.70
2023-03-13T03:10:56.086Z,1.25
2023-03-13T03:12:01.297Z,1.60
2023-03-13T03:13:04.735Z,1.80
2023-03-13T03:14:08.494Z,1.50
2023-03-13T03:15:14.511Z,1.73
2023-03-13T03:16:21.137Z,1.60
2023-03-13T03:17:23.357Z,1.90
2023-03-13T03:18:26.253Z,1.70
2023-03-13T03:19:28.264Z,1.73
2023-03-13T03:20:31.309Z,1.70
2023-03-13T03:21:34.842Z,2.40
2023-03-13T03:22:38.560Z,1.70
2023-03-13T03:23:41.508Z,1.20
2023-03-13T03:24:43.435Z,1.27
2023-03-13T03:25:46.273Z,1.92
2023-03-13T03:26:48.192Z,1.77
2023-03-13T03:28:02.785Z,2.03
2023-03-13T03:29:05.032Z,1.50
2023-03-13T03:30:09.289Z,1.75
2023-03-13T03:31:14.837Z,1.27
2023-03-13T03:32:18.078Z,1.27
2023-03-13T03:33:20.235Z,1.42
2023-03-13T03:34:23.622Z,1.70
2023-03-13T03:35:25.856Z,1.63
2023-03-13T03:36:28.823Z,1.30
2023-03-13T03:37:30.936Z,1.42
2023-03-13T03:38:37.519Z,1.25
2023-03-13T03:39:39.412Z,1.25
2023-03-13T03:40:42.874Z,1.85
2023-03-13T03:41:44.800Z,1.23
2023-03-13T03:42:47.801Z,1.80
2023-03-13T03:43:51.064Z,1.70
2023-03-13T03:44:57.976Z,1.63
2023-03-13T03:46:00.474Z,2.10
2023-03-13T03:47:04.055Z,1.63
2023-03-13T03:48:10.538Z,1.90
2023-03-13T03:49:13.397Z,1.38
2023-03-13T03:50:15.592Z,1.60
2023-03-13T03:51:29.080Z,1.77
2023-03-13T03:52:31.021Z,1.80
2023-03-13T03:53:34.341Z,1.70
2023-03-13T03:54:36.211Z,1.50
2023-03-13T03:55:39.587Z,1.42
2023-03-13T03:56:41.452Z,2.05
2023-03-13T03:57:44.441Z,1.85
2023-03-13T03:58:52.788Z,1.17
2023-03-13T04:00:22.350Z,1.42
2023-03-13T04:01:28.423Z,1.10
2023-03-13T04:02:31.401Z,1.50
2023-03-13T04:03:34.113Z,1.58
2023-03-13T04:04:37.093Z,1.40
2023-03-13T04:05:45.481Z,1.25
2023-03-13T04:06:48.374Z,1.25
2023-03-13T04:07:50.502Z,1.02
2023-03-13T04:08:53.393Z,1.20
2023-03-13T04:09:58.213Z,1.20
2023-03-13T04:11:11.758Z,1.20
2023-03-13T04:12:16.967Z,1.33
2023-03-13T04:13:21.898Z,0.90
2023-03-13T04:14:25.994Z,0.80
2023-03-13T04:15:29.548Z,1.20
2023-03-13T04:16:32.349Z,1.58
2023-03-13T04:17:35.925Z,2.13
2023-03-13T04:18:39.420Z,1.30
2023-03-13T04:19:43.212Z,1.35
2023-03-13T04:20:45.420Z,2.00
2023-03-13T04:21:49.219Z,1.40
2023-03-13T04:22:53.415Z,2.00
2023-03-13T04:23:56.446Z,1.33
2023-03-13T04:24:59.515Z,1.30
2023-03-13T04:26:05.392Z,1.00
2023-03-13T04:27:07.491Z,1.02
2023-03-13T04:28:11.136Z,0.85
2023-03-13T04:29:18.212Z,1.08
2023-03-13T04:30:44.290Z,1.20
2023-03-13T04:32:00.004Z,0.80
2023-03-13T04:33:37.089Z,0.93
2023-03-13T04:34:55.243Z,1.00
2023-03-13T04:36:20.650Z,0.82
2023-03-13T04:37:46.760Z,0.95
2023-03-13T04:39:08.076Z,0.63
2023-03-13T04:40:40.590Z,0.75
2023-03-13T04:42:11.727Z,0.82
2023-03-13T04:43:26.466Z,0.63
2023-03-13T04:44:48.771Z,1.00
2023-03-13T04:46:01.927Z,1.00
2023-03-13T04:47:30.305Z,0.80
2023-03-13T04:48:47.807Z,0.82
2023-03-13T04:50:10.050Z,1.10
2023-03-13T04:51:18.860Z,1.15
2023-03-13T04:52:42.011Z,1.02
2023-03-13T04:54:00.646Z,1.00
2023-03-13T04:55:32.734Z,0.88
2023-03-13T04:56:44.529Z,1.10
2023-03-13T04:58:10.642Z,0.80
2023-03-13T04:59:20.260Z,0.80
2023-03-13T05:00:43.970Z,0.90
2023-03-13T05:02:08.693Z,1.00
2023-03-13T05:03:17.570Z,0.90
2023-03-13T05:04:58.799Z,1.15
2023-03-13T05:06:19.406Z,1.33
2023-03-13T05:07:51.762Z,0.73
2023-03-13T05:09:15.673Z,0.75
2023-03-13T05:10:36.239Z,0.77
2023-03-13T05:11:58.563Z,0.75
2023-03-13T05:13:20.255Z,0.85
2023-03-13T05:14:37.118Z,1.08
2023-03-13T05:15:57.200Z,0.70
2023-03-13T05:17:13.946Z,0.80
2023-03-13T05:18:29.797Z,0.80
2023-03-13T05:19:41.245Z,0.70
2023-03-13T05:20:58.276Z,0.75
2023-03-13T05:22:24.334Z,1.90
2023-03-13T05:23:45.213Z,0.60
2023-03-13T05:25:07.611Z,0.77
2023-03-13T05:26:33.349Z,1.45
2023-03-13T05:27:55.186Z,0.50
2023-03-13T05:29:19.155Z,0.70
2023-03-13T05:30:54.453Z,0.90
2023-03-13T05:32:17.528Z,0.60
2023-03-13T05:33:46.892Z,0.77
2023-03-13T05:35:20.837Z,0.70
2023-03-13T05:36:42.323Z,0.50
2023-03-13T05:38:04.308Z,1.00
2023-03-13T05:39:36.286Z,1.10
2023-03-13T05:41:06.847Z,0.70
2023-03-13T05:42:30.124Z,0.80
2023-03-13T05:43:51.359Z,0.75
2023-03-13T05:45:06.342Z,0.60
2023-03-13T05:46:32.520Z,0.90
2023-03-13T05:47:59.008Z,1.63
2023-03-13T05:49:20.613Z,1.13
2023-03-13T05:50:43.852Z,0.93
2023-03-13T05:52:07.553Z,0.80
2023-03-13T05:53:29.248Z,1.02
2023-03-13T05:54:40.181Z,1.40
2023-03-13T05:56:08.709Z,1.50
2023-03-13T05:57:40.714Z,1.75
2023-03-13T05:59:03.821Z,1.00
2023-03-13T06:00:28.060Z,0.80
2023-03-13T06:02:09.389Z,0.90
2023-03-13T06:03:17.798Z,0.95
2023-03-13T06:04:22.675Z,1.35
2023-03-13T06:05:24.683Z,0.95
2023-03-13T06:06:28.112Z,1.00
2023-03-13T06:07:31.475Z,0.85
2023-03-13T06:08:34.389Z,1.38
2023-03-13T06:09:36.566Z,0.60
2023-03-13T06:10:39.709Z,1.33
2023-03-13T06:11:42.451Z,1.05
2023-03-13T06:12:53.675Z,0.98
2023-03-13T06:13:56.241Z,1.10
2023-03-13T06:15:22.152Z,0.77
2023-03-13T06:16:51.011Z,1.20
2023-03-13T06:17:59.333Z,1.40
2023-03-13T06:19:03.587Z,1.20
2023-03-13T06:20:06.367Z,1.27
2023-03-13T06:21:09.375Z,1.05
2023-03-13T06:22:11.234Z,1.55
2023-03-13T06:23:14.078Z,0.90
2023-03-13T06:24:16.092Z,0.93
2023-03-13T06:25:18.917Z,0.88
2023-03-13T06:26:21.011Z,1.27
2023-03-13T06:27:23.890Z,1.40
2023-03-13T06:28:26.819Z,0.70
2023-03-13T06:29:28.726Z,1.08
2023-03-13T06:30:31.574Z,1.05
2023-03-13T06:31:33.865Z,1.02
2023-03-13T06:32:36.908Z,1.00
2023-03-13T06:33:39.014Z,1.00
2023-03-13T06:34:43.572Z,2.70
2023-03-13T06:35:56.234Z,2.20
2023-03-13T06:37:01.647Z,2.00
2023-03-13T06:38:04.536Z,1.52
2023-03-13T06:39:06.631Z,1.40
2023-03-13T06:40:10.979Z,1.80
2023-03-13T06:41:12.927Z,1.50
2023-03-13T06:42:15.812Z,1.40
2023-03-13T06:43:17.819Z,1.30
2023-03-13T06:44:20.741Z,1.30
2023-03-13T06:45:22.666Z,1.30
2023-03-13T06:46:26.329Z,1.48
2023-03-13T06:47:30.251Z,1.73
2023-03-13T06:48:33.152Z,1.90
2023-03-13T06:49:37.002Z,1.27
2023-03-13T06:50:41.487Z,1.15
2023-03-13T06:51:44.357Z,1.90
2023-03-13T06:52:47.715Z,1.42
2023-03-13T06:53:52.321Z,1.45
2023-03-13T06:54:55.167Z,1.50
2023-03-13T06:56:00.907Z,0.90
2023-03-13T06:57:03.842Z,2.47
2023-03-13T06:58:05.746Z,1.75
2023-03-13T06:59:08.635Z,1.75
2023-03-13T07:00:11.741Z,1.98
2023-03-13T07:01:17.097Z,1.77
2023-03-13T07:02:19.918Z,2.22
2023-03-13T07:03:21.965Z,2.75
2023-03-13T07:04:24.786Z,1.85
2023-03-13T07:05:26.678Z,1.30
2023-03-13T07:06:31.571Z,1.17
2023-03-13T07:07:34.005Z,1.15
2023-03-13T07:08:37.668Z,0.82
2023-03-13T07:09:39.623Z,0.68
2023-03-13T07:10:43.949Z,0.93
2023-03-13T07:11:46.108Z,0.88
2023-03-13T07:12:48.945Z,9.88
2023-03-13T07:13:50.758Z,5.10
2023-03-13T07:14:53.664Z,1.83
2023-03-13T07:15:56.313Z,0.80
2023-03-13T07:17:00.221Z,0.50
2023-03-13T07:18:03.186Z,0.70
2023-03-13T07:19:06.209Z,0.60
2023-03-13T07:20:10.936Z,0.60
2023-03-13T07:21:14.468Z,0.60
2023-03-13T07:22:17.802Z,0.60
2023-03-13T07:23:20.790Z,0.60
2023-03-13T07:24:22.908Z,0.77
2023-03-13T07:25:27.256Z,1.05
2023-03-13T07:26:29.211Z,0.90
2023-03-13T07:27:32.115Z,1.08
2023-03-13T07:28:37.555Z,1.10
2023-03-13T07:29:40.736Z,0.60
2023-03-13T07:30:42.598Z,1.27
2023-03-13T07:31:45.611Z,0.80
2023-03-13T07:32:47.588Z,1.30
2023-03-13T07:33:52.424Z,0.93
2023-03-13T07:34:54.362Z,0.85
2023-03-13T07:35:57.290Z,0.75
2023-03-13T07:37:00.232Z,0.80
2023-03-13T07:38:03.393Z,0.90
2023-03-13T07:39:06.296Z,0.60
2023-03-13T07:40:10.514Z,0.75
2023-03-13T07:41:13.352Z,0.77
2023-03-13T07:42:16.240Z,0.82
2023-03-13T07:43:18.890Z,0.50
2023-03-13T07:44:21.786Z,0.50
2023-03-13T07:45:23.664Z,0.60
2023-03-13T07:46:27.125Z,0.80
2023-03-13T07:47:29.003Z,1.02
2023-03-13T07:48:33.708Z,0.70
2023-03-13T07:49:41.149Z,0.50
2023-03-13T07:50:44.100Z,0.50
2023-03-13T07:51:47.822Z,0.70
2023-03-13T07:52:49.872Z,0.65
2023-03-13T07:53:54.997Z,0.40
2023-03-13T07:54:56.892Z,0.52
2023-03-13T07:56:02.327Z,0.60
2023-03-13T07:57:05.918Z,0.57
2023-03-13T07:58:08.083Z,0.60
2023-03-13T07:59:11.608Z,0.45
2023-03-13T08:00:17.427Z,0.60
2023-03-13T08:01:24.247Z,0.70
2023-03-13T08:02:28.553Z,0.60
2023-03-13T08:03:30.611Z,0.60
2023-03-13T08:04:33.653Z,0.70
2023-03-13T08:05:35.529Z,0.68
2023-03-13T08:06:39.846Z,0.80
2023-03-13T08:07:44.017Z,0.73
2023-03-13T08:08:47.691Z,0.85
2023-03-13T08:09:50.909Z,0.70
2023-03-13T08:10:53.756Z,0.60
2023-03-13T08:11:56.601Z,0.70
2023-03-13T08:12:58.532Z,0.80
2023-03-13T08:14:01.831Z,0.68
2023-03-13T08:15:04.034Z,0.90
2023-03-13T08:16:09.137Z,1.00
2023-03-13T08:17:12.474Z,0.70
2023-03-13T08:18:14.415Z,0.65
2023-03-13T08:19:17.315Z,0.75
2023-03-13T08:20:19.350Z,0.80
2023-03-13T08:21:24.017Z,0.60
2023-03-13T08:22:25.936Z,0.57
2023-03-13T08:23:28.898Z,0.63
2023-03-13T08:24:31.838Z,0.70
2023-03-13T08:25:35.137Z,0.60
2023-03-13T08:26:40.085Z,0.70
2023-03-13T08:27:41.923Z,0.60
2023-03-13T08:28:45.987Z,0.80
2023-03-13T08:29:48.841Z,0.75
2023-03-13T08:30:50.848Z,0.40
2023-03-13T08:31:53.761Z,0.60
2023-03-13T08:32:56.628Z,0.60
2023-03-13T08:33:58.713Z,0.60
2023-03-13T08:35:01.550Z,1.00
2023-03-13T08:36:13.077Z,0.90
2023-03-13T08:37:16.781Z,0.82
2023-03-13T08:38:18.665Z,0.52
2023-03-13T08:39:22.218Z,0.60
2023-03-13T08:40:24.146Z,0.60
2023-03-13T08:41:30.641Z,0.63
2023-03-13T08:42:32.577Z,0.70
2023-03-13T08:43:35.661Z,0.47
2023-03-13T08:44:38.638Z,0.57
2023-03-13T08:45:40.556Z,0.57
2023-03-13T08:46:44.315Z,0.30
2023-03-13T08:47:46.387Z,0.60
2023-03-13T08:48:51.161Z,0.40
2023-03-13T08:49:55.027Z,0.80
2023-03-13T08:51:05.083Z,0.50
2023-03-13T08:52:08.748Z,0.55
2023-03-13T08:53:11.630Z,0.98
2023-03-13T08:54:14.575Z,0.80
2023-03-13T08:55:16.811Z,0.60
2023-03-13T08:56:21.864Z,0.60
2023-03-13T08:57:26.145Z,0.80
2023-03-13T08:58:29.302Z,0.60
2023-03-13T08:59:32.317Z,0.50
2023-03-13T09:00:35.200Z,0.63
2023-03-13T09:01:38.295Z,0.73
2023-03-13T09:02:40.313Z,0.70
2023-03-13T09:03:43.939Z,0.70
2023-03-13T09:04:48.646Z,0.50
2023-03-13T09:05:56.211Z,0.40
2023-03-13T09:06:59.500Z,0.65
2023-03-13T09:08:01.477Z,0.50
2023-03-13T09:09:05.458Z,0.32
2023-03-13T09:10:09.809Z,0.60
2023-03-13T09:11:13.925Z,0.50
2023-03-13T09:12:30.041Z,0.60
2023-03-13T09:13:37.050Z,0.40
2023-03-13T09:14:39.956Z,0.52
2023-03-13T09:15:41.903Z,0.60
2023-03-13T09:16:46.375Z,0.40
2023-03-13T09:17:48.279Z,0.60
2023-03-13T09:18:51.842Z,0.70
2023-03-13T09:20:00.218Z,0.45
2023-03-13T09:21:09.691Z,0.65
2023-03-13T09:22:18.473Z,0.50
2023-03-13T09:23:21.169Z,0.50
2023-03-13T09:24:24.083Z,0.40
2023-03-13T09:25:26.040Z,0.50
2023-03-13T09:26:29.288Z,0.63
2023-03-13T09:27:32.196Z,0.50
2023-03-13T09:28:36.200Z,0.47
2023-03-13T09:29:41.575Z,0.50
2023-03-13T09:30:43.523Z,0.80
2023-03-13T09:31:46.461Z,0.50
2023-03-13T09:32:48.391Z,0.70
2023-03-13T09:33:51.865Z,0.50
2023-03-13T09:34:54.132Z,0.40
2023-03-13T09:35:57.072Z,0.50
2023-03-13T09:36:59.020Z,0.50
2023-03-13T09:38:02.014Z,0.40
2023-03-13T09:39:04.970Z,0.50
2023-03-13T09:40:10.477Z,0.50
2023-03-13T09:41:23.361Z,0.50
2023-03-13T09:42:36.542Z,0.60
2023-03-13T09:43:47.339Z,0.50
2023-03-13T09:44:54.781Z,0.70
2023-03-13T09:46:02.828Z,0.70
2023-03-13T09:47:11.947Z,0.55
2023-03-13T09:48:27.146Z,0.75
2023-03-13T09:49:33.317Z,0.45
2023-03-13T09:50:40.400Z,0.57
2023-03-13T09:51:49.595Z,0.52
2023-03-13T09:52:57.683Z,0.73
2023-03-13T09:54:07.480Z,0.70
2023-03-13T09:55:15.661Z,0.63
2023-03-13T09:56:21.974Z,0.55
2023-03-13T09:57:33.665Z,0.50
2023-03-13T09:58:35.617Z,0.60
2023-03-13T09:59:50.151Z,0.50
2023-03-13T10:00:57.919Z,0.63
2023-03-13T10:02:02.362Z,0.50
2023-03-13T10:03:13.618Z,0.50
2023-03-13T10:04:34.238Z,0.60
2023-03-13T10:05:37.866Z,0.43
2023-03-13T10:06:45.008Z,0.40
2023-03-13T10:07:48.128Z,0.65
2023-03-13T10:08:51.133Z,0.73
2023-03-13T10:09:53.797Z,0.55
2023-03-13T10:11:04.701Z,0.40
2023-03-13T10:12:15.497Z,0.52
2023-03-13T10:13:22.816Z,0.40
2023-03-13T10:14:31.918Z,0.50
2023-03-13T10:15:46.121Z,0.50
2023-03-13T10:16:51.276Z,0.57
2023-03-13T10:17:54.477Z,0.57
2023-03-13T10:19:00.482Z,0.40
2023-03-13T10:20:18.388Z,0.60
2023-03-13T10:21:22.863Z,0.50
2023-03-13T10:22:30.018Z,0.50
2023-03-13T10:23:40.803Z,0.40
2023-03-13T10:24:49.822Z,0.50
2023-03-13T10:25:52.909Z,0.43
2023-03-13T10:26:56.871Z,0.47
2023-03-13T10:28:00.278Z,0.52
2023-03-13T10:29:20.165Z,0.85
2023-03-13T10:30:25.739Z,0.65
2023-03-13T10:31:32.423Z,0.70
2023-03-13T10:32:35.430Z,0.47
2023-03-13T10:33:37.456Z,0.40
2023-03-13T10:34:51.528Z,0.40
2023-03-13T10:36:08.867Z,0.40
2023-03-13T10:37:15.212Z,0.52
2023-03-13T10:38:20.460Z,0.60
2023-03-13T10:39:24.265Z,0.50
2023-03-13T10:40:29.646Z,0.50
2023-03-13T10:41:36.808Z,0.50
2023-03-13T10:42:43.429Z,0.70
2023-03-13T10:43:52.239Z,0.50
2023-03-13T10:45:00.792Z,0.50
2023-03-13T10:46:03.972Z,0.40
2023-03-13T10:47:14.880Z,0.45
2023-03-13T10:48:21.606Z,0.60
2023-03-13T10:49:25.629Z,0.52
2023-03-13T10:50:33.678Z,0.40
2023-03-13T10:51:40.010Z,0.40
2023-03-13T10:52:43.751Z,0.40
2023-03-13T10:53:46.893Z,0.50
2023-03-13T10:54:49.795Z,0.50
2023-03-13T10:55:53.664Z,0.40
2023-03-13T10:57:12.622Z,0.40
2023-03-13T10:58:22.150Z,0.30
2023-03-13T10:59:25.984Z,0.52
2023-03-13T11:00:36.700Z,0.40
2023-03-13T11:01:44.887Z,0.40
2023-03-13T11:02:48.252Z,0.40
2023-03-13T11:03:53.093Z,0.57
2023-03-13T11:04:55.657Z,0.52
2023-03-13T11:06:00.948Z,0.50
2023-03-13T11:07:06.287Z,0.40
2023-03-13T11:08:23.822Z,0.50
2023-03-13T11:09:27.699Z,0.30
2023-03-13T11:10:30.364Z,0.50
2023-03-13T11:11:45.279Z,0.50
2023-03-13T11:12:48.718Z,0.60
2023-03-13T11:13:51.663Z,0.43
2023-03-13T11:14:57.586Z,0.55
2023-03-13T11:16:04.483Z,0.50
2023-03-13T11:17:18.630Z,0.50
2023-03-13T11:18:29.357Z,0.60
2023-03-13T11:20:00.565Z,0.40
2023-03-13T11:21:17.646Z,0.40
2023-03-13T11:22:31.583Z,0.55
2023-03-13T11:23:40.719Z,0.38
2023-03-13T11:24:47.526Z,0.70
2023-03-13T11:26:03.001Z,0.45
2023-03-13T11:27:16.225Z,1.30
2023-03-13T11:28:29.817Z,0.60
2023-03-13T11:29:39.935Z,0.75
2023-03-13T11:30:54.779Z,0.70
2023-03-13T11:32:01.621Z,0.50
2023-03-13T11:33:07.528Z,0.60
2023-03-13T11:34:20.914Z,0.90
2023-03-13T11:35:37.263Z,0.40
2023-03-13T11:36:48.957Z,1.05
2023-03-13T11:37:56.522Z,0.60
2023-03-13T11:39:12.565Z,0.82
2023-03-13T11:40:21.266Z,0.60
2023-03-13T11:41:38.203Z,0.57
2023-03-13T11:43:08.878Z,0.90
2023-03-13T11:44:44.213Z,0.70
2023-03-13T11:45:57.553Z,0.55
2023-03-13T11:47:34.384Z,0.60
2023-03-13T11:49:02.793Z,0.98
2023-03-13T11:50:19.762Z,0.73
2023-03-13T11:51:30.349Z,0.80
2023-03-13T11:52:41.696Z,0.80
2023-03-13T11:54:07.145Z,0.77
2023-03-13T11:55:26.397Z,0.90
2023-03-13T11:56:36.644Z,0.90
2023-03-13T11:57:48.857Z,0.75
2023-03-13T11:59:08.726Z,0.93
2023-03-13T12:00:23.034Z,0.90
2023-03-13T12:01:28.799Z,0.70
2023-03-13T12:02:36.259Z,0.80
2023-03-13T12:03:45.664Z,0.85
2023-03-13T12:04:55.631Z,1.38
2023-03-13T12:06:00.645Z,1.10
2023-03-13T12:07:07.452Z,0.60
2023-03-13T12:08:18.055Z,0.80
2023-03-13T12:09:28.279Z,0.85
2023-03-13T12:10:37.300Z,1.00
2023-03-13T12:11:47.257Z,1.05
2023-03-13T12:12:56.446Z,1.08
2023-03-13T12:14:02.778Z,0.95
2023-03-13T12:15:19.168Z,1.15
2023-03-13T12:16:27.466Z,0.75
2023-03-13T12:17:33.586Z,1.10
2023-03-13T12:18:39.506Z,0.80
2023-03-13T12:19:49.079Z,0.80
2023-03-13T12:20:56.671Z,0.93
2023-03-13T12:22:11.731Z,0.90
2023-03-13T12:23:19.625Z,0.93
2023-03-13T12:24:30.839Z,0.90
2023-03-13T12:25:39.718Z,0.98
2023-03-13T12:26:48.130Z,0.73
2023-03-13T12:27:53.940Z,0.80
2023-03-13T12:29:08.204Z,1.00
2023-03-13T12:30:23.554Z,1.50
2023-03-13T12:31:29.408Z,1.35
2023-03-13T12:32:37.360Z,1.60
2023-03-13T12:33:44.496Z,1.05
2023-03-13T12:35:00.125Z,1.05
2023-03-13T12:36:13.345Z,1.30
2023-03-13T12:37:25.934Z,1.20
2023-03-13T12:38:37.141Z,0.90
2023-03-13T12:39:43.637Z,0.95
2023-03-13T12:40:53.224Z,0.95
2023-03-13T12:42:10.349Z,1.38
2023-03-13T12:43:20.134Z,1.20
2023-03-13T12:44:24.024Z,1.13
2023-03-13T12:45:29.419Z,1.02
2023-03-13T12:46:39.216Z,1.15
2023-03-13T12:48:04.853Z,0.80
2023-03-13T12:49:22.077Z,1.30
2023-03-13T12:50:36.846Z,0.90
2023-03-13T12:51:52.411Z,1.17
2023-03-13T12:53:14.774Z,0.95
2023-03-13T12:54:39.266Z,1.17
2023-03-13T12:56:10.639Z,0.85
2023-03-13T12:57:38.613Z,1.20
2023-03-13T12:58:48.888Z,1.63
2023-03-13T12:59:59.153Z,1.10
2023-03-13T13:01:05.800Z,1.23
2023-03-13T13:02:18.316Z,1.20
2023-03-13T13:03:30.761Z,1.02
2023-03-13T13:04:42.836Z,0.80
2023-03-13T13:05:59.379Z,1.05
2023-03-13T13:07:06.170Z,1.25
2023-03-13T13:08:24.972Z,1.10
2023-03-13T13:09:30.125Z,1.20
2023-03-13T13:10:32.072Z,1.05
2023-03-13T13:11:49.581Z,0.82
2023-03-13T13:13:20.832Z,0.90
2023-03-13T13:15:11.136Z,1.10
2023-03-13T13:16:19.760Z,1.20
2023-03-13T13:17:57.564Z,1.30
2023-03-13T13:19:46.137Z,1.02
2023-03-13T13:20:50.854Z,1.02
2023-03-13T13:22:27.186Z,1.35
2023-03-13T13:23:39.065Z,1.15
2023-03-13T13:24:48.924Z,1.17
2023-03-13T13:25:53.541Z,1.60
2023-03-13T13:26:56.436Z,1.05
2023-03-13T13:28:22.496Z,1.20
2023-03-13T13:29:59.016Z,1.13
2023-03-13T13:31:03.009Z,1.50
2023-03-13T13:32:14.932Z,1.30
2023-03-13T13:33:38.294Z,1.63
2023-03-13T13:35:00.992Z,1.17
2023-03-13T13:36:30.250Z,1.20
2023-03-13T13:37:33.838Z,1.20
2023-03-13T13:38:40.395Z,1.10
2023-03-13T13:39:48.022Z,1.00
2023-03-13T13:41:01.131Z,1.00
2023-03-13T13:42:45.797Z,1.38
2023-03-13T13:43:50.704Z,1.30
2023-03-13T13:45:00.452Z,1.30
2023-03-13T13:46:09.081Z,1.02
2023-03-13T13:47:25.470Z,1.00
2023-03-13T13:48:37.904Z,0.90
2023-03-13T13:49:55.494Z,0.80
2023-03-13T13:51:25.125Z,1.00
2023-03-13T13:52:37.777Z,1.30
2023-03-13T13:53:46.273Z,1.00
2023-03-13T13:54:57.645Z,0.95
2023-03-13T13:56:03.254Z,1.15
2023-03-13T13:57:10.317Z,1.13
2023-03-13T13:58:18.940Z,0.90
2023-03-13T13:59:43.786Z,1.50
2023-03-13T14:00:53.180Z,1.10
2023-03-13T14:02:25.043Z,0.90
2023-03-13T14:03:29.951Z,0.90
2023-03-13T14:04:36.214Z,1.00
2023-03-13T14:05:42.339Z,0.90
2023-03-13T14:06:48.878Z,1.20
2023-03-13T14:07:58.300Z,0.90
2023-03-13T14:09:16.046Z,0.80
2023-03-13T14:10:34.909Z,0.88
2023-03-13T14:11:39.841Z,1.20
2023-03-13T14:12:47.565Z,1.10
2023-03-13T14:14:16.111Z,1.10
2023-03-13T14:15:20.146Z,1.52
2023-03-13T14:16:26.798Z,1.23
2023-03-13T14:17:28.954Z,0.80
2023-03-13T14:18:32.449Z,0.82
2023-03-13T14:19:40.993Z,0.95
2023-03-13T14:20:55.423Z,0.80
2023-03-13T14:22:03.207Z,0.90
2023-03-13T14:23:08.202Z,0.90
2023-03-13T14:24:16.719Z,0.80
2023-03-13T14:25:18.700Z,0.88
2023-03-13T14:26:23.490Z,0.82
2023-03-13T14:27:25.421Z,0.93
2023-03-13T14:28:30.298Z,0.70
2023-03-13T14:29:33.321Z,0.82
2023-03-13T14:30:35.199Z,0.73
2023-03-13T14:31:40.217Z,0.80
2023-03-13T14:32:42.548Z,0.80
2023-03-13T14:33:45.501Z,0.60
2023-03-13T14:34:47.359Z,0.73
2023-03-13T14:35:50.929Z,0.60
2023-03-13T14:37:04.415Z,0.80
2023-03-13T14:38:17.576Z,0.90
2023-03-13T14:39:37.001Z,0.65
2023-03-13T14:40:39.096Z,0.85
2023-03-13T14:41:46.113Z,0.90
2023-03-13T14:42:50.380Z,0.95
2023-03-13T14:43:53.365Z,0.68
2023-03-13T14:44:57.615Z,0.88
2023-03-13T14:46:13.866Z,0.70
2023-03-13T14:47:23.947Z,0.70
2023-03-13T14:48:31.695Z,0.40
2023-03-13T14:49:33.853Z,0.80
2023-03-13T14:50:37.143Z,0.70
2023-03-13T14:51:41.353Z,0.80
2023-03-13T14:52:46.689Z,0.95
2023-03-13T14:53:57.416Z,0.80
2023-03-13T14:55:04.233Z,0.80
2023-03-13T14:56:19.010Z,0.63
2023-03-13T14:57:26.881Z,0.60
2023-03-13T14:58:30.958Z,0.90
2023-03-13T14:59:33.892Z,1.45
2023-03-13T15:00:40.204Z,0.50
2023-03-13T15:01:42.270Z,0.77
2023-03-13T15:02:45.106Z,0.80
2023-03-13T15:03:47.133Z,0.70
2023-03-13T15:04:52.114Z,0.70
2023-03-13T15:06:16.050Z,0.85